• Join FlightAware (Why Join?)
  • Login
  • US Flag 
11:50AM EDT


 

Airport Tracker/Info


-or-


 

Live Flight TrackerFlight Track Log ✈ DAL1331 ✈ 16-Jun-2013 ✈ KBWI - KMSP

Flight Track Log - Related Links

Times and Time Zones

All times are in EDT time to prevent confusion due to time zone crossing. See the DAL1331 flight status page for this flight to view local times or setup timezone preferences in your user account.

Time Position Orientation Groundspeed Altitude Reporting Facility
EDT Latitude Longitude Course Direction KTS MPH feet Rate Location/Type
07:42PM 39.1833 -76.7167 282° West 181 208 1,500  Level Potomac TRACON
07:43PM 39.1833 -76.8000 270° West 242 278 4,100 2,700 Climbing Potomac TRACON
07:44PM 39.1833 -76.8833 270° West 257 296 6,900 2,400 Climbing Potomac TRACON
07:45PM 39.2000 -77.0881 270° West  Level FlightAware Approximate
07:46PM 39.2552 -77.1885 322° Northwest  Level FlightAware Approximate
07:46PM 39.2586 -77.0711 297° West 271 312 11,300  Level Washington Center
07:47PM 39.3433 -77.2766 322° Northwest  Level FlightAware Approximate
07:47PM 39.3008 -77.1875 295° West 314 361 12,700  Level Washington Center
07:48PM 39.3917 -77.4003 282° West  Level FlightAware Approximate
07:48PM 39.3492 -77.3119 297° West 357 411 14,600  Level Washington Center
07:49PM 39.3994 -77.4419 297° West 387 445 16,900 1,980 Climbing Washington Center
07:50PM 39.4494 -77.5697 297° West 399 459 18,700 1,740 Climbing Washington Center
07:51PM 39.4931 -77.7081 292° West 404 465 20,400 1,440 Climbing Washington Center
07:53PM 39.5792 -77.9919 292° West 409 471 23,000 1,500 Climbing Cleveland Center
07:54PM 39.6217 -78.1333 291° West 416 479 24,900 1,740 Climbing Cleveland Center
07:55PM 39.6644 -78.2772 291° West 428 493 26,500 1,500 Climbing Cleveland Center
07:56PM 39.7003 -78.4056 290° West 428 493 28,000 720 Climbing Cleveland Center
07:57PM 39.7425 -78.5419 292° West 423 487 28,000  Level Cleveland Center
07:58PM 39.7847 -78.6947 290° West 423 487 28,000  Level Cleveland Center
07:59PM 39.8200 -78.8208 290° West 423 487 28,000  Level Cleveland Center
08:00PM 39.8661 -78.9764 291° West 423 487 28,000  Level Cleveland Center
08:01PM 39.9075 -79.1161 291° West 423 487 28,000  Level Cleveland Center
08:02PM 39.9469 -79.2561 290° West 418 481 28,000  Level Cleveland Center
08:03PM 39.9942 -79.3933 294° West 418 481 28,000  Level Cleveland Center
08:04PM 40.0581 -79.5197 303° West 418 481 28,000  Level Cleveland Center
08:05PM 40.1239 -79.6464 304° West 418 481 28,000 120 Level Cleveland Center
08:06PM 40.1894 -79.7733 304° West 423 487 28,300 480 Climbing Cleveland Center
08:07PM 40.2528 -79.9003 303° West 423 487 29,000 300 Climbing Cleveland Center
08:08PM 40.3158 -80.0222 304° West 417 480 29,000  Level Cleveland Center
08:09PM 40.3706 -80.1417 301° West 417 480 29,000  Level Cleveland Center
08:10PM 40.4356 -80.2639 305° West 417 480 29,000  Level Cleveland Center
08:11PM 40.5006 -80.3839 305° West 411 473 29,000  Level Cleveland Center
08:12PM 40.5611 -80.5092 302° West 406 467 29,000 -360 Level Cleveland Center
08:13PM 40.6217 -80.6322 303° West 406 467 28,300 -540 Descending Cleveland Center
08:14PM 40.6819 -80.7528 303° West 406 467 28,000 -180 Descending Cleveland Center
08:15PM 40.7422 -80.8764 303° West 412 474 28,000  Level Cleveland Center
08:16PM 40.8022 -80.9972 303° West 405 466 28,000  Level Cleveland Center
08:17PM 40.8581 -81.1183 301° West 400 460 28,000  Level Cleveland Center
08:18PM 40.9158 -81.2425 302° West 394 453 28,000  Level Cleveland Center
08:19PM 40.9817 -81.3753 303° West 394 453 28,000  Level Cleveland Center
08:20PM 41.0411 -81.4997 302° West 394 453 28,000  Level Cleveland Center
08:21PM 41.0964 -81.6164 302° West 394 453 28,000  Level Cleveland Center
08:22PM 41.1539 -81.7219 306° West 394 453 28,000  Level Cleveland Center
08:23PM 41.2172 -81.8364 306° West 394 453 28,000  Level Cleveland Center
08:24PM 41.2806 -81.9564 305° West 394 453 28,000  Level Cleveland Center
08:25PM 41.3394 -82.0767 303° West 394 453 28,000  Level Cleveland Center
08:26PM 41.4003 -82.1969 304° West 400 460 28,000  Level Cleveland Center
08:27PM 41.4631 -82.3178 305° West 400 460 28,000  Level Cleveland Center
08:28PM 41.5258 -82.4442 304° West 407 468 28,000  Level Cleveland Center
08:29PM 41.5944 -82.5711 306° West 401 461 28,000  Level Cleveland Center
08:30PM 41.6569 -82.6897 305° West 401 461 28,000  Level Cleveland Center
08:31PM 41.7194 -82.8114 305° West 401 461 28,000  Level Cleveland Center
08:32PM 41.7794 -82.9306 304° West 401 461 28,000  Level Cleveland Center
08:33PM 41.8417 -83.0497 305° West 401 461 28,000  Level Cleveland Center
08:34PM 41.8897 -83.1467 304° West 401 461 28,000  Level Cleveland Center
08:35PM 41.9528 -83.3000 299° West 401 461 28,000  Level Cleveland Center
08:36PM 41.9853 -83.4214 290° West 387 445 28,000  Level Cleveland Center
08:37PM 42.0194 -83.5572 289° West 381 438 28,000  Level Cleveland Center
08:38PM 42.0511 -83.6928 288° West 381 438 28,000  Level Cleveland Center
08:39PM 42.0869 -83.8289 290° West 387 445 28,000  Level Cleveland Center
08:40PM 42.1228 -83.9653 290° West 392 451 28,000  Level Cleveland Center
08:41PM 42.1603 -84.1072 290° West 392 451 28,000  Level Cleveland Center
08:42PM 42.1933 -84.2464 288° West 392 451 28,000  Level Cleveland Center
08:43PM 42.2264 -84.3858 288° West 392 451 28,000  Level Cleveland Center
08:44PM 42.2614 -84.5197 289° West 392 451 28,000  Level Cleveland Center
08:45PM 42.3042 -84.6686 291° West 395 455 28,000  Level Cleveland Center
08:46PM 42.3381 -84.8314 286° West 383 441 28,000  Level Chicago Center
08:48PM 42.3722 -84.9678 289° West 384 442 28,000  Level Chicago Center
08:49PM 42.4050 -85.1050 288° West 384 442 28,000  Level Chicago Center
08:50PM 42.4383 -85.2439 288° West 386 444 28,000  Level Chicago Center
08:51PM 42.4708 -85.3803 288° West 383 441 28,000  Level Chicago Center
08:52PM 42.5114 -85.5467 288° West 387 445 28,000  Level Chicago Center
08:53PM 42.5436 -85.6833 288° West 382 440 28,000  Level Chicago Center
08:54PM 42.5756 -85.8244 287° West 389 448 28,000  Level Chicago Center
08:55PM 42.6083 -85.9633 288° West 387 445 28,000  Level Chicago Center
08:56PM 42.6400 -86.1025 287° West 384 442 28,000  Level Chicago Center
08:57PM 42.6719 -86.2419 287° West 384 442 28,000  Level Chicago Center
08:58PM 42.7028 -86.3814 287° West 381 438 28,000  Level Chicago Center
08:59PM 42.7408 -86.5478 287° West 383 441 28,000  Level Chicago Center
09:00PM 42.7717 -86.6861 287° West 381 438 28,000  Level Chicago Center
09:01PM 42.8028 -86.8253 287° West 383 441 28,000  Level Chicago Center
09:02PM 42.8333 -86.9644 287° West 384 442 28,000  Level Chicago Center
09:03PM 42.8639 -87.1036 287° West 383 441 28,000  Level Chicago Center
09:04PM 42.8992 -87.2414 289° West 384 442 28,000  Level Chicago Center
09:05PM 42.9625 -87.3800 302° West 386 444 28,000  Level Chicago Center
09:06PM 43.0175 -87.5050 301° West 384 442 28,000  Level Chicago Center
09:07PM 43.0825 -87.6514 301° West 384 442 28,000  Level Chicago Center
09:08PM 43.1386 -87.7792 301° West 390 449 28,000  Level Chicago Center
09:09PM 43.1947 -87.9064 301° West 390 449 28,000  Level Chicago Center
09:10PM 43.2508 -88.0344 301° West 392 451 28,000  Level Chicago Center
09:11PM 43.3061 -88.1622 301° West 390 449 28,000  Level Chicago Center
09:12PM 43.3631 -88.2900 302° West 391 450 28,000  Level Chicago Center
09:13PM 43.4261 -88.4339 301° West 395 455 28,000  Level Chicago Center
09:14PM 43.4917 -88.5781 302° West 403 464 28,000  Level Chicago Center
09:15PM 43.5381 -88.6903 300° West 392 451 28,000  Level Chicago Center
09:16PM 43.6031 -88.8392 301° West 389 448 28,000  Level Chicago Center
09:17PM 43.6583 -88.9686 301° West 390 449 28,000  Level Chicago Center
09:19PM 43.7139 -89.0992 301° West 392 451 28,000  Level Chicago Center
09:19PM 43.7328 -89.1419 301° West 393 452 28,000  Level Minneapolis Center
09:20PM 43.7686 -89.2294 300° West 393 452 28,000  Level Chicago Center
09:21PM 43.8242 -89.3606 300° West 393 452 28,000  Level Chicago Center
09:21PM 43.8417 -89.4039 299° West 395 455 28,000  Level Minneapolis Center
09:22PM 43.8806 -89.4922 301° West 396 456 28,000  Level Chicago Center
09:23PM 43.9453 -89.6444 301° West 394 453 28,000  Level Chicago Center
09:24PM 44.0003 -89.7769 300° West 395 455 28,000  Level Chicago Center
09:25PM 44.0550 -89.9097 300° West 395 455 28,000  Level Chicago Center
09:25PM 44.0731 -89.9536 300° West 397 457 28,000  Level Minneapolis Center
09:26PM 44.1403 -90.0753 308° West 397 457 28,000  Level Minneapolis Center
09:27PM 44.2083 -90.1972 308° West 398 458 28,000  Level Minneapolis Center
09:28PM 44.2750 -90.3214 307° West 399 459 28,000  Level Minneapolis Center
09:29PM 44.3436 -90.4461 308° West 402 463 28,000  Level Minneapolis Center
09:30PM 44.4233 -90.5903 308° West 400 460 28,000  Level Minneapolis Center
09:31PM 44.4908 -90.7142 307° West 401 461 28,000  Level Minneapolis Center
09:32PM 44.5564 -90.8369 307° West 395 455 28,000  Level Minneapolis Center
09:33PM 44.6192 -90.9750 303° West 392 451 28,000  Level Minneapolis Center
09:34PM 44.6642 -91.1142 294° West 392 451 28,000  Level Minneapolis Center
09:35PM 44.7094 -91.2525 295° West 392 451 28,000 -420 Level Minneapolis Center
09:36PM 44.7550 -91.3906 295° West 391 450 27,200 -1,800 Descending Minneapolis Center
09:37PM 44.8000 -91.5269 295° West 390 449 24,300 -3,000 Descending Minneapolis Center
09:38PM 44.8528 -91.6875 295° West 385 443 21,100 -2,700 Descending Minneapolis Center
09:39PM 44.8956 -91.8147 295° West 371 427 18,800 -2,400 Descending Minneapolis Center
09:41PM 44.9364 -91.9372 295° West 348 400 16,200 -2,520 Descending Minneapolis Center
09:42PM 44.9756 -92.0561 295° West 337 388 13,600 -2,460 Descending Minneapolis Center
09:43PM 45.0136 -92.1744 294° West 333 383 11,200 -1,320 Descending Minneapolis Center
09:44PM 45.0486 -92.2942 293° West 333 383 10,900 -120 Descending Minneapolis Center
09:45PM 45.0256 -92.4486 258° West 336 387 11,000  Climbing Minneapolis Center
09:46PM 45.0050 -92.5764 257° West 337 388 11,000  Level Minneapolis Center
09:47PM 44.9850 -92.7036 258° West 334 384 11,000 -60 Level Minneapolis Center
09:48PM 44.9656 -92.8217 257° West 308 354 10,900 -720 Descending Minneapolis Center
09:49PM 44.9489 -92.9244 257° West 274 315 9,600 -1,440 Descending Minneapolis Center
09:50PM 44.9322 -93.0278 257° West 272 313 8,000 -840 Descending Minneapolis Center
09:51PM 44.9569 -93.1386 288° West 264 304 7,900 -840 Descending Minneapolis Center
09:52PM 44.9958 -93.2219 303° West 258 297 6,300 -1,140 Descending Minneapolis Center
09:53PM 45.0331 -93.3039 303° West 251 289 5,600 -720 Descending Minneapolis Center